createdAt,value
2019-03-06T00:00:53.916Z,3.80
2019-03-06T00:03:23.400Z,3.80
2019-03-06T00:05:53.065Z,3.70
2019-03-06T00:08:22.311Z,3.60
2019-03-06T00:10:51.392Z,3.60
2019-03-06T00:13:20.830Z,3.50
2019-03-06T00:15:50.452Z,3.40
2019-03-06T00:18:21.116Z,3.40
2019-03-06T00:20:50.166Z,3.40
2019-03-06T00:23:19.540Z,3.40
2019-03-06T00:25:48.894Z,3.40
2019-03-06T00:28:17.995Z,3.50
2019-03-06T00:30:47.448Z,3.40
2019-03-06T00:33:16.548Z,3.50
2019-03-06T00:35:47.297Z,3.50
2019-03-06T00:38:16.415Z,3.40
2019-03-06T00:40:49.980Z,3.40
2019-03-06T00:43:19.367Z,3.40
2019-03-06T00:45:48.475Z,3.40
2019-03-06T00:48:17.841Z,3.20
2019-03-06T00:50:47.005Z,3.30
2019-03-06T00:53:16.544Z,3.30
2019-03-06T00:55:45.822Z,3.30
2019-03-06T00:58:15.432Z,3.20
2019-03-06T01:00:44.869Z,3.30
2019-03-06T01:03:14.332Z,3.20
2019-03-06T01:05:43.692Z,3.20
2019-03-06T01:08:12.890Z,3.20
2019-03-06T01:10:42.056Z,3.10
2019-03-06T01:13:11.598Z,3.20
2019-03-06T01:15:40.672Z,3.10
2019-03-06T01:18:10.037Z,3.10
2019-03-06T01:20:39.113Z,3.20
2019-03-06T01:23:08.193Z,3.20
2019-03-06T01:25:37.377Z,3.30
2019-03-06T01:28:06.486Z,3.30
2019-03-06T01:30:36.190Z,3.10
2019-03-06T01:33:06.975Z,3.20
2019-03-06T01:35:41.162Z,3.20
2019-03-06T01:38:11.991Z,3.20
2019-03-06T01:40:54.657Z,3.10
2019-03-06T01:43:34.688Z,3.20
2019-03-06T01:46:03.770Z,3.20
2019-03-06T01:48:33.154Z,3.10
2019-03-06T01:51:02.502Z,3.10
2019-03-06T01:53:31.598Z,3.10
2019-03-06T01:56:00.706Z,3.10
2019-03-06T01:58:29.833Z,3.20
2019-03-06T02:00:58.937Z,3.20
2019-03-06T02:03:28.043Z,3.10
2019-03-06T02:05:57.219Z,3.10
2019-03-06T02:08:26.414Z,3.20
2019-03-06T02:10:55.911Z,3.20
2019-03-06T02:13:25.034Z,3.10
2019-03-06T02:15:54.099Z,3.10
2019-03-06T02:18:23.705Z,3.10
2019-03-06T02:20:52.784Z,3.00
2019-03-06T02:23:21.865Z,3.00
2019-03-06T02:25:50.945Z,3.10
2019-03-06T02:28:20.291Z,3.00
2019-03-06T02:30:49.404Z,3.00
2019-03-06T02:33:18.516Z,3.00
2019-03-06T02:35:47.594Z,2.90
2019-03-06T02:38:16.702Z,2.90
2019-03-06T02:40:46.133Z,2.90
2019-03-06T02:43:15.233Z,2.90
2019-03-06T02:45:44.602Z,2.80
2019-03-06T02:48:13.781Z,2.80
2019-03-06T02:50:42.871Z,2.90
2019-03-06T02:53:11.973Z,2.80
2019-03-06T02:55:41.143Z,2.80
2019-03-06T02:58:14.734Z,2.70
2019-03-06T03:00:57.655Z,2.70
2019-03-06T03:03:34.356Z,2.70
2019-03-06T03:06:05.053Z,2.80
2019-03-06T03:08:34.401Z,2.70
2019-03-06T03:11:03.568Z,2.80
2019-03-06T03:13:33.306Z,2.70
2019-03-06T03:16:02.659Z,2.70
2019-03-06T03:18:31.767Z,2.70
2019-03-06T03:21:00.863Z,2.70
2019-03-06T03:23:30.043Z,2.60
2019-03-06T03:25:59.138Z,2.60
2019-03-06T03:28:28.254Z,2.70
2019-03-06T03:30:57.369Z,2.60
2019-03-06T03:33:26.940Z,2.50
2019-03-06T03:35:56.073Z,2.60
2019-03-06T03:38:25.125Z,2.50
2019-03-06T03:40:54.253Z,2.60
2019-03-06T03:43:25.425Z,2.50
2019-03-06T03:45:54.988Z,2.50
2019-03-06T03:48:24.082Z,2.60
2019-03-06T03:50:53.468Z,2.60
2019-03-06T03:53:22.597Z,2.60
2019-03-06T03:55:51.731Z,2.60
2019-03-06T03:58:21.123Z,2.60
2019-03-06T04:00:50.288Z,2.60
2019-03-06T04:03:19.629Z,2.60
2019-03-06T04:05:49.103Z,2.60
2019-03-06T04:08:18.456Z,2.60
2019-03-06T04:10:47.840Z,2.70
2019-03-06T04:13:16.941Z,2.80
2019-03-06T04:15:46.033Z,2.90
2019-03-06T04:18:15.482Z,2.90
2019-03-06T04:20:44.862Z,2.90
2019-03-06T04:23:13.947Z,3.00
2019-03-06T04:25:43.419Z,3.00
2019-03-06T04:28:12.558Z,3.10
2019-03-06T04:30:41.916Z,3.00
2019-03-06T04:33:11.251Z,3.00
2019-03-06T04:35:40.586Z,2.90
2019-03-06T04:38:09.660Z,2.90
2019-03-06T04:40:39.026Z,2.90
2019-03-06T04:43:08.363Z,2.90
2019-03-06T04:45:37.448Z,2.90
2019-03-06T04:48:06.816Z,2.80
2019-03-06T04:50:35.891Z,2.90
2019-03-06T04:53:05.254Z,2.90
2019-03-06T04:55:34.329Z,3.00
2019-03-06T04:58:03.449Z,3.00
2019-03-06T05:00:32.784Z,3.00
2019-03-06T05:03:01.868Z,3.10
2019-03-06T05:05:30.952Z,3.10
2019-03-06T05:08:00.074Z,3.10
2019-03-06T05:10:29.404Z,3.20
2019-03-06T05:12:58.505Z,3.10
2019-03-06T05:15:27.833Z,3.20
2019-03-06T05:17:58.603Z,3.20
2019-03-06T05:20:27.680Z,3.10
2019-03-06T05:22:57.042Z,3.10
2019-03-06T05:25:26.153Z,3.10
2019-03-06T05:27:55.585Z,3.10
2019-03-06T05:30:26.300Z,3.10
2019-03-06T05:33:05.973Z,3.10
2019-03-06T05:36:04.937Z,3.10
2019-03-06T05:39:04.480Z,3.20
2019-03-06T05:41:33.734Z,3.10
2019-03-06T05:44:02.933Z,3.10
2019-03-06T05:46:32.234Z,3.10
2019-03-06T05:49:01.729Z,3.10
2019-03-06T05:51:31.041Z,3.10
2019-03-06T05:54:00.240Z,3.20
2019-03-06T05:56:29.542Z,3.20
2019-03-06T05:58:58.935Z,3.20
2019-03-06T06:01:28.441Z,3.20
2019-03-06T06:03:57.856Z,3.20
2019-03-06T06:06:27.449Z,3.20
2019-03-06T06:08:56.980Z,3.30
2019-03-06T06:11:26.465Z,3.30
2019-03-06T06:13:55.985Z,3.30
2019-03-06T06:16:26.827Z,3.30
2019-03-06T06:18:56.227Z,3.50
2019-03-06T06:21:27.465Z,3.50
2019-03-06T06:23:58.608Z,3.50
2019-03-06T06:26:28.126Z,3.60
2019-03-06T06:28:57.426Z,3.60
2019-03-06T06:31:26.830Z,3.60
2019-03-06T06:33:56.028Z,3.60
2019-03-06T06:36:25.520Z,3.60
2019-03-06T06:38:55.026Z,3.60
2019-03-06T06:41:24.241Z,3.60
2019-03-06T06:43:53.543Z,3.70
2019-03-06T06:46:23.033Z,3.70
2019-03-06T06:48:52.454Z,3.80
2019-03-06T06:51:43.179Z,3.80
2019-03-06T06:54:30.583Z,3.90
2019-03-06T06:57:22.609Z,3.90
2019-03-06T07:00:18.020Z,4.10
2019-03-06T07:03:07.944Z,4.20
2019-03-06T07:05:49.621Z,4.30
2019-03-06T07:08:20.451Z,4.40
2019-03-06T07:10:51.579Z,4.40
2019-03-06T07:13:25.398Z,4.50
2019-03-06T07:16:05.787Z,4.60
2019-03-06T07:18:39.157Z,4.60
2019-03-06T07:21:12.656Z,4.70
2019-03-06T07:23:46.345Z,4.60
2019-03-06T07:26:20.581Z,4.80
2019-03-06T07:28:51.811Z,4.90
2019-03-06T07:31:22.867Z,5.00
2019-03-06T07:33:56.666Z,5.00
2019-03-06T07:36:36.723Z,5.20
2019-03-06T07:39:10.081Z,5.20
2019-03-06T07:41:47.236Z,5.30
2019-03-06T07:44:30.227Z,5.30
2019-03-06T07:46:56.791Z,5.40
2019-03-06T07:49:33.646Z,5.50
2019-03-06T07:52:07.555Z,5.50
2019-03-06T07:54:41.351Z,5.50
2019-03-06T07:57:12.495Z,5.60
2019-03-06T07:59:41.813Z,5.70
2019-03-06T08:02:38.854Z,5.70
2019-03-06T08:05:10.383Z,6.00
2019-03-06T08:07:39.720Z,6.10
2019-03-06T08:10:18.532Z,6.20
2019-03-06T08:12:49.483Z,6.30
2019-03-06T08:15:26.353Z,6.50
2019-03-06T08:18:00.227Z,6.50
2019-03-06T08:20:47.995Z,6.50
2019-03-06T08:23:28.772Z,6.70
2019-03-06T08:25:58.169Z,6.80
2019-03-06T08:28:27.357Z,6.90
2019-03-06T08:30:58.318Z,6.90
2019-03-06T08:33:27.825Z,7.00
2019-03-06T08:35:57.126Z,7.00
2019-03-06T08:38:26.726Z,7.00
2019-03-06T08:41:03.854Z,7.00
2019-03-06T08:43:27.388Z,6.80
2019-03-06T08:45:58.527Z,6.80
2019-03-06T08:48:35.395Z,6.90
2019-03-06T08:51:09.422Z,7.00
2019-03-06T08:53:40.556Z,7.10
2019-03-06T08:56:12.620Z,7.20
2019-03-06T08:58:59.707Z,7.40
2019-03-06T09:01:47.245Z,7.60
2019-03-06T09:04:18.617Z,7.80
2019-03-06T09:06:55.598Z,7.90
2019-03-06T09:12:06.402Z,8.10
2019-03-06T09:14:43.113Z,8.00
2019-03-06T09:17:14.083Z,8.10
2019-03-06T09:19:47.916Z,8.10
2019-03-06T09:22:25.100Z,8.30
2019-03-06T09:25:12.425Z,8.30
2019-03-06T09:27:46.431Z,8.40
2019-03-06T09:30:26.799Z,8.50
2019-03-06T09:32:57.749Z,8.70
2019-03-06T09:35:38.099Z,8.60
2019-03-06T09:38:15.383Z,8.80
2019-03-06T09:40:46.558Z,8.90
2019-03-06T09:43:23.632Z,9.00
2019-03-06T09:45:54.681Z,9.20
2019-03-06T09:48:28.583Z,9.30
2019-03-06T09:51:02.580Z,9.40
2019-03-06T09:53:39.459Z,9.40
2019-03-06T09:56:18.919Z,9.60
2019-03-06T09:58:52.818Z,9.60
2019-03-06T10:01:23.849Z,9.70
2019-03-06T10:04:11.584Z,9.80
2019-03-06T10:06:48.486Z,9.90
2019-03-06T10:09:27.187Z,9.80
2019-03-06T10:12:07.664Z,9.90
2019-03-06T10:14:54.782Z,9.90
2019-03-06T10:17:30.138Z,10.10
2019-03-06T10:20:01.570Z,10.10
2019-03-06T10:22:31.079Z,10.10
2019-03-06T10:25:00.634Z,10.10
2019-03-06T10:27:29.992Z,10.10
2019-03-06T10:29:59.183Z,10.10
2019-03-06T10:32:28.690Z,10.00
2019-03-06T10:34:58.303Z,10.00
2019-03-06T10:37:27.711Z,10.10
2019-03-06T10:39:57.204Z,10.10
2019-03-06T10:42:26.707Z,10.20
2019-03-06T10:44:56.211Z,10.40
2019-03-06T10:47:25.735Z,10.40
2019-03-06T10:49:54.939Z,10.50
2019-03-06T10:52:24.588Z,10.60
2019-03-06T10:54:53.845Z,10.70
2019-03-06T10:57:23.045Z,10.40
2019-03-06T10:59:52.766Z,10.40
2019-03-06T11:02:22.261Z,10.40
2019-03-06T11:04:53.545Z,10.40
2019-03-06T11:07:23.202Z,10.50
2019-03-06T11:09:52.522Z,10.60
2019-03-06T11:12:21.826Z,10.70
2019-03-06T11:14:51.631Z,10.70
2019-03-06T11:17:21.040Z,10.70
2019-03-06T11:19:50.578Z,10.60
2019-03-06T11:22:19.754Z,10.80
2019-03-06T11:24:49.343Z,10.80
2019-03-06T11:27:18.982Z,10.80
2019-03-06T11:29:48.465Z,10.70
2019-03-06T11:32:18.270Z,10.90
2019-03-06T11:34:48.102Z,10.80
2019-03-06T11:37:17.689Z,10.70
2019-03-06T11:39:47.216Z,10.90
2019-03-06T11:42:16.813Z,10.80
2019-03-06T11:44:46.127Z,10.90
2019-03-06T11:47:15.426Z,10.80
2019-03-06T11:49:45.033Z,10.80
2019-03-06T11:52:14.337Z,11.00
2019-03-06T11:54:43.740Z,11.10
2019-03-06T11:57:13.145Z,11.20
2019-03-06T11:59:42.645Z,11.20
2019-03-06T12:02:12.448Z,11.10
2019-03-06T12:04:42.067Z,11.20
2019-03-06T12:07:11.374Z,11.40
2019-03-06T12:09:40.776Z,11.50
2019-03-06T12:12:10.265Z,11.50
2019-03-06T12:14:39.789Z,11.50
2019-03-06T12:17:09.194Z,11.60
2019-03-06T12:19:38.699Z,11.70
2019-03-06T12:22:07.897Z,11.70
2019-03-06T12:24:37.097Z,11.70
2019-03-06T12:27:06.713Z,11.50
2019-03-06T12:29:36.107Z,11.70
2019-03-06T12:32:06.023Z,11.60
2019-03-06T12:34:35.523Z,11.50
2019-03-06T12:37:05.960Z,11.70
2019-03-06T12:39:35.558Z,11.60
2019-03-06T12:42:13.757Z,11.70
2019-03-06T12:44:36.123Z,11.70
2019-03-06T12:47:06.168Z,11.70
2019-03-06T12:49:35.731Z,11.70
2019-03-06T12:52:05.259Z,11.60
2019-03-06T12:54:34.552Z,11.50
2019-03-06T12:57:04.262Z,11.60
2019-03-06T12:59:33.463Z,11.50
2019-03-06T13:02:02.973Z,11.60
2019-03-06T13:04:41.345Z,11.60
2019-03-06T13:07:11.739Z,11.60
2019-03-06T13:09:41.870Z,11.70
2019-03-06T13:12:14.506Z,11.80
2019-03-06T13:14:47.240Z,11.80
2019-03-06T13:17:17.917Z,12.00
2019-03-06T13:19:49.791Z,12.10
2019-03-06T13:22:24.964Z,12.10
2019-03-06T13:24:57.546Z,12.30
2019-03-06T13:27:29.312Z,12.30
2019-03-06T13:30:01.639Z,12.30
2019-03-06T13:32:38.714Z,12.40
2019-03-06T13:35:12.399Z,12.50
2019-03-06T13:37:42.757Z,12.40
2019-03-06T13:40:18.752Z,12.50
2019-03-06T13:42:49.188Z,12.60
2019-03-06T13:45:20.048Z,12.60
2019-03-06T13:47:52.390Z,12.60
2019-03-06T13:50:24.438Z,12.50
2019-03-06T13:52:54.781Z,12.60
2019-03-06T13:55:26.600Z,12.70
2019-03-06T13:57:58.876Z,12.80
2019-03-06T14:00:31.063Z,12.80
2019-03-06T14:03:04.570Z,12.70
2019-03-06T14:05:35.050Z,12.70
2019-03-06T14:08:11.119Z,12.70
2019-03-06T14:10:44.142Z,12.70
2019-03-06T14:13:14.398Z,12.80
2019-03-06T14:15:53.600Z,12.80
2019-03-06T14:18:18.284Z,12.80
2019-03-06T14:20:52.505Z,12.80
2019-03-06T14:23:34.629Z,12.80
2019-03-06T14:25:59.068Z,12.80
2019-03-06T14:28:29.068Z,12.70
2019-03-06T14:31:01.902Z,12.70
2019-03-06T14:33:33.102Z,12.80
2019-03-06T14:36:06.146Z,12.90
2019-03-06T14:38:38.435Z,12.90
2019-03-06T14:41:09.626Z,12.90
2019-03-06T14:43:41.492Z,12.90
2019-03-06T14:46:16.810Z,12.90
2019-03-06T14:48:48.489Z,12.90
2019-03-06T14:51:23.845Z,12.80
2019-03-06T14:53:56.355Z,12.80
2019-03-06T14:56:27.207Z,12.70
2019-03-06T14:58:57.710Z,12.60
2019-03-06T15:01:31.270Z,12.60
2019-03-06T15:04:10.416Z,12.60
2019-03-06T15:06:43.439Z,12.60
2019-03-06T15:09:25.217Z,12.60
2019-03-06T15:11:54.893Z,12.70
2019-03-06T15:14:24.415Z,12.70
2019-03-06T15:16:56.743Z,12.70
2019-03-06T15:19:25.987Z,12.70
2019-03-06T15:21:55.585Z,12.60
2019-03-06T15:24:25.095Z,12.60
2019-03-06T15:26:54.709Z,12.60
2019-03-06T15:29:25.916Z,12.60
2019-03-06T15:31:55.250Z,12.50
2019-03-06T15:34:25.467Z,12.60
2019-03-06T15:36:54.977Z,12.50
2019-03-06T15:39:29.620Z,12.60
2019-03-06T15:42:00.584Z,12.50
2019-03-06T15:44:30.253Z,12.50
2019-03-06T15:46:59.769Z,12.40
2019-03-06T15:49:29.773Z,12.40
2019-03-06T15:51:59.297Z,12.40
2019-03-06T15:54:29.830Z,12.40
2019-03-06T15:56:59.317Z,12.50
2019-03-06T15:59:28.635Z,12.30
2019-03-06T16:01:58.130Z,12.30
2019-03-06T16:04:27.343Z,12.20
2019-03-06T16:06:56.965Z,12.10
2019-03-06T16:09:27.056Z,12.10
2019-03-06T16:11:56.671Z,12.00
2019-03-06T16:14:26.290Z,12.00
2019-03-06T16:16:55.779Z,12.00
2019-03-06T16:19:25.097Z,12.00
2019-03-06T16:21:54.590Z,11.90
2019-03-06T16:24:23.805Z,12.00
2019-03-06T16:26:53.126Z,11.90
2019-03-06T16:29:25.492Z,11.90
2019-03-06T16:31:55.074Z,11.80
2019-03-06T16:34:24.576Z,11.80
2019-03-06T16:36:53.982Z,11.70
2019-03-06T16:39:23.503Z,11.70
2019-03-06T16:41:52.725Z,11.70
2019-03-06T16:44:22.209Z,11.60
2019-03-06T16:46:51.708Z,11.50
2019-03-06T16:49:24.393Z,11.50
2019-03-06T16:51:54.010Z,11.60
2019-03-06T16:54:23.204Z,11.50
2019-03-06T16:56:52.699Z,11.40
2019-03-06T16:59:22.422Z,11.40
2019-03-06T17:01:51.917Z,11.30
2019-03-06T17:04:21.444Z,11.30
2019-03-06T17:06:51.244Z,11.20
2019-03-06T17:09:20.651Z,11.20
2019-03-06T17:11:50.348Z,11.20
2019-03-06T17:14:19.667Z,11.20
2019-03-06T17:16:48.963Z,11.20
2019-03-06T17:19:18.261Z,11.20
2019-03-06T17:21:49.011Z,11.20
2019-03-06T17:24:18.306Z,11.20
2019-03-06T17:26:47.912Z,11.20
2019-03-06T17:29:17.404Z,11.20
2019-03-06T17:31:46.727Z,11.20
2019-03-06T17:34:16.429Z,11.20
2019-03-06T17:36:46.041Z,11.30
2019-03-06T17:39:16.964Z,11.20
2019-03-06T17:41:46.177Z,11.20
2019-03-06T17:44:16.105Z,11.20
2019-03-06T17:46:45.801Z,11.30
2019-03-06T17:49:15.310Z,11.30
2019-03-06T17:51:44.611Z,11.30
2019-03-06T17:54:14.220Z,11.30
2019-03-06T17:56:43.423Z,11.30
2019-03-06T17:59:13.125Z,11.30
2019-03-06T18:01:42.728Z,11.20
2019-03-06T18:04:13.843Z,11.20
2019-03-06T18:06:43.486Z,11.20
2019-03-06T18:09:13.466Z,11.20
2019-03-06T18:11:42.904Z,11.30
2019-03-06T18:14:12.214Z,11.30
2019-03-06T18:16:41.707Z,11.20
2019-03-06T18:19:11.216Z,11.20
2019-03-06T18:21:40.743Z,11.20
2019-03-06T18:24:09.935Z,11.30
2019-03-06T18:26:39.135Z,11.20
2019-03-06T18:29:10.545Z,11.20
2019-03-06T18:31:40.296Z,11.20
2019-03-06T18:34:09.799Z,11.10
2019-03-06T18:36:39.311Z,11.20
2019-03-06T18:39:10.589Z,11.10
2019-03-06T18:41:40.055Z,11.00
2019-03-06T18:44:09.862Z,11.00
2019-03-06T18:46:39.279Z,11.00
2019-03-06T18:49:08.585Z,11.00
2019-03-06T18:51:38.489Z,11.00
2019-03-06T18:54:07.799Z,11.00
2019-03-06T18:56:37.100Z,11.00
2019-03-06T18:59:06.812Z,10.90
2019-03-06T19:01:36.305Z,10.90
2019-03-06T19:04:05.833Z,11.00
2019-03-06T19:06:35.398Z,10.90
2019-03-06T19:09:06.680Z,11.00
2019-03-06T19:11:36.086Z,11.00
2019-03-06T19:14:06.239Z,10.90
2019-03-06T19:16:35.507Z,10.80
2019-03-06T19:19:05.131Z,10.80
2019-03-06T19:27:17.771Z,10.20
2019-03-06T19:29:47.283Z,10.40
2019-03-06T19:32:16.973Z,10.40
2019-03-06T19:34:46.806Z,10.40
2019-03-06T19:37:16.103Z,10.40
2019-03-06T19:39:45.323Z,10.50
2019-03-06T19:42:14.502Z,10.50
2019-03-06T19:44:43.704Z,10.40
2019-03-06T19:47:13.198Z,10.40
2019-03-06T19:49:42.800Z,10.40
2019-03-06T19:52:14.166Z,10.50
2019-03-06T19:54:43.603Z,10.40
2019-03-06T19:57:13.088Z,10.40
2019-03-06T19:59:42.705Z,10.40
2019-03-06T20:02:12.086Z,10.40
2019-03-06T20:04:41.695Z,10.40
2019-03-06T20:07:11.054Z,10.50
2019-03-06T20:09:40.915Z,10.50
2019-03-06T20:12:10.626Z,10.50
2019-03-06T20:14:39.928Z,10.50
2019-03-06T20:17:09.330Z,10.50
2019-03-06T20:19:38.631Z,10.50
2019-03-06T20:22:08.125Z,10.40
2019-03-06T20:24:37.643Z,10.40
2019-03-06T20:27:06.853Z,10.50
2019-03-06T20:29:36.394Z,10.40
2019-03-06T20:32:05.845Z,10.40
2019-03-06T20:34:35.505Z,10.40
2019-03-06T20:37:05.789Z,10.40
2019-03-06T20:39:41.233Z,10.40
2019-03-06T20:42:12.588Z,10.40
2019-03-06T20:44:41.888Z,10.40
2019-03-06T20:47:11.592Z,10.40
2019-03-06T20:49:40.901Z,10.40
2019-03-06T20:52:10.202Z,10.40
2019-03-06T20:55:01.837Z,10.40
2019-03-06T20:57:31.129Z,10.40
2019-03-06T21:00:00.563Z,10.40
2019-03-06T21:02:30.181Z,10.40
2019-03-06T21:05:00.314Z,10.40
2019-03-06T21:07:29.767Z,10.40
2019-03-06T21:09:59.689Z,10.40
2019-03-06T21:12:29.194Z,10.50
2019-03-06T21:14:58.585Z,10.40
2019-03-06T21:17:28.394Z,10.40
2019-03-06T21:19:57.811Z,10.50
2019-03-06T21:22:27.611Z,10.50
2019-03-06T21:24:57.440Z,10.50
2019-03-06T21:27:27.049Z,10.50
2019-03-06T21:29:56.249Z,10.60
2019-03-06T21:32:25.758Z,10.60
2019-03-06T21:35:07.081Z,10.60
2019-03-06T21:37:36.453Z,10.60
2019-03-06T21:40:12.704Z,10.60
2019-03-06T21:42:42.106Z,10.60
2019-03-06T21:45:12.876Z,10.60
2019-03-06T21:47:42.157Z,10.60
2019-03-06T21:50:13.066Z,10.60
2019-03-06T21:52:42.385Z,10.60
2019-03-06T21:55:14.677Z,10.60
2019-03-06T21:57:44.366Z,10.50
2019-03-06T22:00:21.339Z,10.60
2019-03-06T22:02:50.654Z,10.60
2019-03-06T22:05:20.265Z,10.60
2019-03-06T22:07:50.941Z,10.60
2019-03-06T22:10:20.709Z,10.70
2019-03-06T22:12:50.198Z,10.60
2019-03-06T22:15:23.199Z,10.60
2019-03-06T22:17:52.707Z,10.60
2019-03-06T22:20:22.016Z,10.70
2019-03-06T22:22:51.310Z,10.70
2019-03-06T22:25:21.112Z,10.70
2019-03-06T22:27:50.424Z,10.70
2019-03-06T22:30:24.760Z,10.70
2019-03-06T22:32:54.250Z,10.70
2019-03-06T22:35:23.859Z,10.80
2019-03-06T22:38:01.032Z,10.70
2019-03-06T22:40:39.876Z,10.70
2019-03-06T22:43:09.361Z,10.60
2019-03-06T22:45:38.880Z,10.70
2019-03-06T22:48:08.184Z,10.70
2019-03-06T22:50:37.691Z,10.60
2019-03-06T22:53:07.302Z,10.70
2019-03-06T22:55:36.805Z,11.00
2019-03-06T22:58:06.311Z,10.80
2019-03-06T23:00:50.857Z,10.70
2019-03-06T23:03:21.095Z,10.80
2019-03-06T23:05:50.296Z,10.80
2019-03-06T23:08:19.594Z,10.80
2019-03-06T23:10:49.192Z,10.70
2019-03-06T23:13:18.503Z,10.70
2019-03-06T23:15:48.050Z,10.70
2019-03-06T23:18:17.511Z,10.70
2019-03-06T23:20:46.921Z,10.70
2019-03-06T23:23:16.939Z,10.70
2019-03-06T23:25:46.366Z,10.70
2019-03-06T23:28:16.254Z,10.70
2019-03-06T23:30:45.757Z,10.70
2019-03-06T23:33:15.067Z,10.70
2019-03-06T23:35:44.562Z,10.70
2019-03-06T23:38:14.251Z,10.70
2019-03-06T23:40:43.688Z,10.70
2019-03-06T23:43:13.000Z,10.70
2019-03-06T23:45:42.391Z,10.60
2019-03-06T23:48:11.889Z,10.60
2019-03-06T23:50:41.406Z,10.60
2019-03-06T23:53:12.132Z,10.60
2019-03-06T23:55:42.043Z,10.70
2019-03-06T23:58:11.412Z,10.70
